Time;durP1;ratioP1;P1;durP2;ratioP2;P2;SDS_P1;SDS_P2;PMS_P1;PMS_P2;Temp;Humidity;BMP_temperature;BMP_pressure;BME280_temperature;BME280_humidity;BME280_pressure;Samples;Min_cycle;Max_cycle;Signal;HPM_P1;HPM_P2
2022/08/14 00:02:54;;;;;;;9.38;4.68;;;;;;;20.74;68.19;100809.16;6019076;28;20466;-65
2022/08/14 00:05:50;;;;;;;6.27;4.50;;;;;;;20.75;68.26;100806.28;6017324;28;20037;-65
2022/08/14 00:08:46;;;;;;;6.32;4.35;;;;;;;20.56;68.74;100785.56;6017384;28;20281;-68
2022/08/14 00:11:41;;;;;;;10.30;4.90;;;;;;;20.51;69.54;100787.22;6013758;28;20045;-67
2022/08/14 00:14:38;;;;;;;6.83;4.70;;;;;;;20.67;68.71;100781.41;6022307;28;20042;-65
2022/08/14 00:17:34;;;;;;;9.38;5.13;;;;;;;20.65;68.64;100778.09;6020755;28;20113;-64
2022/08/14 00:20:32;;;;;;;7.80;4.93;;;;;;;20.55;69.05;100783.06;6017203;28;20057;-64
2022/08/14 00:23:27;;;;;;;7.35;5.10;;;;;;;20.51;69.19;100784.53;6020440;28;20038;-65
2022/08/14 00:26:23;;;;;;;10.23;4.70;;;;;;;20.42;69.84;100783.09;6024397;28;20545;-65
2022/08/14 00:29:18;;;;;;;8.10;4.75;;;;;;;20.45;68.94;100771.88;6026124;28;20049;-64
2022/08/14 00:32:14;;;;;;;7.37;5.00;;;;;;;20.47;69.49;100791.38;6020745;28;20034;-65
2022/08/14 00:35:10;;;;;;;13.63;5.03;;;;;;;20.56;69.10;100784.72;6021025;28;20086;-63
2022/08/14 00:38:05;;;;;;;8.50;4.70;;;;;;;20.70;69.74;100783.69;6024308;28;20072;-66
2022/08/14 00:41:03;;;;;;;10.13;4.93;;;;;;;20.61;68.75;100768.75;6019371;28;20030;-65
2022/08/14 00:43:58;;;;;;;7.43;4.60;;;;;;;20.69;68.71;100768.53;6023172;28;20049;-64
2022/08/14 00:46:54;;;;;;;8.00;5.10;;;;;;;20.73;68.12;100770.63;6024882;28;20022;-64
2022/08/14 00:49:55;;;;;;;8.20;4.90;;;;;;;20.82;68.77;100771.19;6024549;28;20034;-65
2022/08/14 00:52:51;;;;;;;6.95;4.68;;;;;;;21.11;67.32;100786.94;6021220;28;20058;-67
2022/08/14 00:55:47;;;;;;;6.82;4.88;;;;;;;21.02;67.40;100771.97;6024169;28;20038;-65
2022/08/14 00:58:42;;;;;;;8.15;4.70;;;;;;;21.15;66.61;100752.25;6025634;28;20045;-65
2022/08/14 01:01:37;;;;;;;8.03;4.47;;;;;;;21.18;66.76;100749.97;6021249;28;20386;-65
2022/08/14 01:04:34;;;;;;;8.13;4.95;;;;;;;21.22;66.88;100737.72;6039174;28;20474;-65
2022/08/14 01:07:30;;;;;;;7.05;4.68;;;;;;;21.36;66.25;100735.78;6022129;28;20069;-65
2022/08/14 01:10:49;;;;;;;7.57;5.00;;;;;;;21.40;66.97;100728.06;6019960;28;20046;-65
2022/08/14 01:13:44;;;;;;;7.95;5.18;;;;;;;20.92;67.32;100725.78;6014455;28;20061;-66
2022/08/14 01:16:39;;;;;;;6.18;4.57;;;;;;;20.91;67.94;100729.50;6021591;28;20031;-64
2022/08/14 01:22:50;;;;;;;5.82;4.35;;;;;;;20.92;68.65;100719.53;6020635;28;20038;-64
2022/08/14 01:25:47;;;;;;;7.65;4.85;;;;;;;21.26;67.65;100727.28;6022072;28;20562;-66
2022/08/14 01:28:43;;;;;;;7.45;4.30;;;;;;;21.27;67.57;100724.41;6023287;28;20034;-64
2022/08/14 01:32:12;;;;;;;8.60;4.93;;;;;;;21.29;66.89;100735.78;6021120;28;20034;-66
2022/08/14 01:35:00;;;;;;;9.27;5.05;;;;;;;20.85;68.19;100722.25;6023692;28;20107;-65
2022/08/14 01:37:56;;;;;;;6.68;4.88;;;;;;;20.99;67.54;100721.16;6022472;28;20038;-64
2022/08/14 01:40:52;;;;;;;6.10;4.75;;;;;;;20.96;67.61;100721.59;6015133;28;20394;-65
2022/08/14 01:44:00;;;;;;;7.68;4.70;;;;;;;20.81;68.69;100723.72;6015805;28;20053;-65
2022/08/14 01:47:00;;;;;;;8.13;5.35;;;;;;;20.60;69.50;100726.69;6022896;28;20033;-64
2022/08/14 01:49:57;;;;;;;8.55;5.20;;;;;;;20.35;70.74;100728.38;6021417;28;20801;-65
2022/08/14 01:52:53;;;;;;;8.32;5.05;;;;;;;20.38;70.80;100733.38;6019659;28;20030;-66
2022/08/14 01:55:50;;;;;;;8.40;5.07;;;;;;;20.36;70.71;100725.47;6016592;28;20053;-65
2022/08/14 01:58:48;;;;;;;6.88;5.07;;;;;;;20.34;71.43;100718.63;6016769;28;20026;-65
2022/08/14 02:01:49;;;;;;;8.13;5.03;;;;;;;20.30;71.86;100714.72;6022386;28;20737;-66
2022/08/14 02:04:45;;;;;;;7.47;5.05;;;;;;;20.28;72.20;100712.22;6023188;28;20351;-65
2022/08/14 02:07:42;;;;;;;6.55;4.80;;;;;;;20.61;72.02;100717.56;6024006;28;20113;-64
2022/08/14 02:10:40;;;;;;;6.57;4.97;;;;;;;20.66;71.39;100721.28;6019375;28;20046;-66
2022/08/14 02:13:35;;;;;;;10.63;5.60;;;;;;;20.59;71.40;100716.94;6021022;28;20034;-65
2022/08/14 02:16:37;;;;;;;7.33;5.07;;;;;;;20.34;72.74;100721.34;6023258;28;20485;-65
2022/08/14 02:19:34;;;;;;;8.07;5.15;;;;;;;20.34;72.44;100721.34;6024169;28;20033;-65
2022/08/14 02:22:29;;;;;;;9.10;5.05;;;;;;;20.29;73.13;100715.75;6017305;28;20091;-66
2022/08/14 02:25:25;;;;;;;7.95;5.13;;;;;;;20.31;73.04;100719.06;6019552;28;20031;-65
2022/08/14 02:28:20;;;;;;;8.30;5.30;;;;;;;20.18;73.76;100728.78;6023458;28;20481;-65
2022/08/14 02:31:16;;;;;;;8.18;5.57;;;;;;;20.38;73.00;100709.13;6015641;28;20459;-66
2022/08/14 02:34:13;;;;;;;7.47;4.90;;;;;;;20.55;73.14;100716.53;6024427;28;20031;-65
2022/08/14 02:37:10;;;;;;;9.18;5.72;;;;;;;20.56;72.60;100699.34;6035490;28;20038;-66
2022/08/14 02:40:06;;;;;;;9.30;5.43;;;;;;;20.44;72.73;100716.34;6022898;28;20028;-65
2022/08/14 02:43:02;;;;;;;10.27;6.07;;;;;;;20.43;72.75;100714.69;6023260;28;20023;-65
2022/08/14 02:45:58;;;;;;;9.90;6.57;;;;;;;20.64;73.10;100711.75;6020680;28;20428;-66
2022/08/14 02:48:53;;;;;;;10.05;6.43;;;;;;;20.65;72.27;100702.63;6023113;28;20026;-66
2022/08/14 02:51:48;;;;;;;13.32;6.63;;;;;;;20.60;71.80;100705.94;6014878;28;20116;-65
2022/08/14 02:54:44;;;;;;;12.80;6.00;;;;;;;20.43;72.19;100702.06;6022537;28;20038;-66
2022/08/14 02:57:41;;;;;;;9.45;6.05;;;;;;;20.29;73.58;100696.91;6020437;28;20035;-65
2022/08/14 03:00:36;;;;;;;12.13;6.07;;;;;;;20.12;74.07;100691.91;6020591;28;20272;-64
2022/08/14 03:03:32;;;;;;;9.93;5.57;;;;;;;20.25;74.29;100699.16;6021467;28;20470;-64
2022/08/14 03:06:27;;;;;;;8.55;5.53;;;;;;;20.10;74.56;100674.31;6021542;28;20042;-66
2022/08/14 03:09:22;;;;;;;8.37;5.40;;;;;;;20.22;75.34;100685.28;6022937;28;20425;-65
2022/08/14 03:12:19;;;;;;;9.20;5.93;;;;;;;20.30;74.35;100693.19;6013595;28;20026;-65
2022/08/14 03:15:15;;;;;;;9.00;5.53;;;;;;;20.43;74.26;100693.16;6022182;28;20057;-65
2022/08/14 03:18:12;;;;;;;8.60;5.90;;;;;;;20.37;74.08;100694.81;6014410;28;20034;-66
2022/08/14 03:21:12;;;;;;;7.20;5.30;;;;;;;20.17;74.33;100693.97;6017664;28;20371;-64
2022/08/14 03:24:12;;;;;;;11.85;6.05;;;;;;;20.02;75.20;100691.50;6020647;28;20022;-65
2022/08/14 03:27:09;;;;;;;9.18;5.75;;;;;;;19.80;76.00;100687.38;6014364;28;20085;-66
2022/08/14 03:30:05;;;;;;;8.18;5.65;;;;;;;19.47;77.60;100698.09;6021768;28;20034;-65
2022/08/14 03:33:01;;;;;;;7.28;5.70;;;;;;;19.30;78.73;100687.88;6017500;28;20030;-64
2022/08/14 03:35:58;;;;;;;8.15;5.95;;;;;;;19.17;79.13;100685.16;6019042;28;20663;-65
2022/08/14 03:38:53;;;;;;;9.77;6.18;;;;;;;19.07;80.01;100687.41;6015442;28;20038;-65
2022/08/14 03:41:55;;;;;;;9.77;5.68;;;;;;;18.94;80.73;100689.00;6015184;28;20050;-65
2022/08/14 03:44:50;;;;;;;10.48;6.15;;;;;;;18.93;80.62;100687.34;6021838;28;20030;-64
2022/08/14 03:47:46;;;;;;;8.93;6.20;;;;;;;18.81;81.39;100686.25;6016544;28;20129;-66
2022/08/14 03:50:43;;;;;;;10.90;6.23;;;;;;;18.97;81.19;100685.91;6021746;28;20030;-66
2022/08/14 03:53:43;;;;;;;11.55;6.78;;;;;;;18.98;80.81;100671.44;6017972;28;20061;-65
2022/08/14 03:56:43;;;;;;;9.40;6.13;;;;;;;19.00;81.09;100674.75;6018381;28;20377;-65
2022/08/14 03:59:38;;;;;;;11.25;5.72;;;;;;;18.94;81.81;100654.06;6021241;28;20041;-65
2022/08/14 04:02:35;;;;;;;10.60;6.30;;;;;;;18.97;81.79;100655.50;6015263;28;20034;-65
2022/08/14 04:05:31;;;;;;;10.82;5.82;;;;;;;18.98;82.33;100660.69;6017381;28;20335;-64
2022/08/14 04:08:26;;;;;;;8.80;6.22;;;;;;;18.87;83.23;100663.97;6019613;28;20033;-64
2022/08/14 04:11:22;;;;;;;10.20;5.90;;;;;;;18.80;83.41;100652.38;6020876;28;20492;-66
2022/08/14 04:14:17;;;;;;;9.60;5.57;;;;;;;18.87;83.06;100653.22;6021192;28;20034;-66
2022/08/14 04:17:12;;;;;;;7.43;5.00;;;;;;;19.00;83.20;100653.25;6014716;28;20077;-64
2022/08/14 04:20:08;;;;;;;11.43;6.00;;;;;;;19.15;82.02;100661.16;6017857;28;20093;-65
2022/08/14 04:23:05;;;;;;;10.32;6.10;;;;;;;18.93;82.58;100649.72;6013552;28;20534;-65
2022/08/14 04:26:04;;;;;;;8.57;5.30;;;;;;;18.86;83.63;100654.22;6019348;28;20480;-64
2022/08/14 04:28:59;;;;;;;9.23;5.88;;;;;;;18.79;84.49;100652.56;6013955;28;20030;-65
2022/08/14 04:31:55;;;;;;;11.23;5.87;;;;;;;18.76;84.28;100644.91;6019740;28;20066;-65
2022/08/14 04:34:52;;;;;;;13.18;6.07;;;;;;;18.83;84.21;100649.25;6017793;28;20400;-65
2022/08/14 04:44:15;;;;;;;8.65;5.45;;;;;;;18.98;84.04;100622.22;6014137;28;20113;-66
2022/08/14 04:50:25;;;;;;;8.57;5.78;;;;;;;19.13;82.57;100630.13;6012305;28;20101;-64
2022/08/14 04:53:22;;;;;;;10.73;5.93;;;;;;;19.19;82.74;100618.53;6017678;28;20035;-64
2022/08/14 04:56:21;;;;;;;8.23;5.88;;;;;;;19.34;81.65;100611.13;6021251;28;20266;-64
2022/08/14 04:59:16;;;;;;;8.90;5.63;;;;;;;19.38;81.40;100620.47;6017346;28;20470;-65
2022/08/14 05:02:12;;;;;;;12.00;6.23;;;;;;;19.24;82.12;100611.53;6019540;28;20096;-64
2022/08/14 05:05:08;;;;;;;11.15;6.35;;;;;;;19.30;82.13;100613.41;6019697;28;20074;-64
2022/08/14 05:08:07;;;;;;;8.77;5.70;;;;;;;19.78;80.79;100616.78;6014835;28;20041;-64
2022/08/14 05:11:05;;;;;;;8.43;5.85;;;;;;;20.06;78.50;100625.44;6021978;28;20357;-65
2022/08/14 05:14:01;;;;;;;9.45;6.07;;;;;;;20.29;77.47;100619.63;6022748;28;20092;-64
2022/08/14 05:16:57;;;;;;;11.48;6.15;;;;;;;20.56;77.18;100612.28;6025753;28;20734;-65
2022/08/14 05:19:52;;;;;;;10.13;6.63;;;;;;;20.79;75.98;100607.19;6024211;28;20045;-65
2022/08/14 05:22:48;;;;;;;10.00;6.00;;;;;;;20.73;75.43;100608.06;6022466;28;20030;-66
2022/08/14 05:25:46;;;;;;;9.43;6.22;;;;;;;21.16;74.48;100609.09;6018907;28;20281;-65
2022/08/14 05:28:43;;;;;;;9.38;6.85;;;;;;;21.24;73.23;100616.91;6022758;28;20078;-65
2022/08/14 05:31:41;;;;;;;10.27;6.05;;;;;;;20.90;74.85;100614.59;6023998;28;20038;-65
2022/08/14 05:34:36;;;;;;;9.48;6.65;;;;;;;21.15;73.90;100612.81;6021526;28;20045;-65
2022/08/14 05:37:32;;;;;;;8.83;6.67;;;;;;;21.22;73.63;100591.22;6015789;28;20043;-66
2022/08/14 05:40:27;;;;;;;12.05;6.20;;;;;;;21.28;73.16;100590.31;6020064;28;20768;-65
2022/08/14 05:43:23;;;;;;;13.60;6.23;;;;;;;21.40;73.17;100591.28;6019227;28;20080;-65
2022/08/14 05:46:21;;;;;;;10.65;6.13;;;;;;;21.70;71.85;100581.47;6023331;28;20622;-65
2022/08/14 05:49:16;;;;;;;8.27;5.43;;;;;;;21.65;72.70;100585.88;6021409;28;20094;-64
2022/08/14 05:52:12;;;;;;;7.17;5.70;;;;;;;21.90;72.89;100579.41;6023531;28;20553;-64
2022/08/14 05:55:09;;;;;;;9.73;5.85;;;;;;;22.12;71.06;100566.34;6017898;28;20037;-65
2022/08/14 05:58:06;;;;;;;7.90;5.60;;;;;;;21.71;72.92;100580.44;6021545;28;20026;-63
2022/08/14 06:01:02;;;;;;;7.50;5.75;;;;;;;22.02;71.35;100566.00;6023415;28;20030;-65
2022/08/14 06:03:57;;;;;;;6.65;4.90;;;;;;;22.08;71.08;100570.53;6022770;28;20034;-65
2022/08/14 06:06:52;;;;;;;9.30;5.97;;;;;;;22.35;70.34;100563.75;6021769;28;20382;-66
2022/08/14 06:09:47;;;;;;;7.60;5.23;;;;;;;23.20;66.78;100571.78;6021704;28;20501;-64
2022/08/14 06:12:43;;;;;;;7.03;5.22;;;;;;;23.48;66.24;100564.66;6023525;28;20038;-64
2022/08/14 06:15:38;;;;;;;9.18;5.57;;;;;;;23.93;64.12;100562.22;6022870;28;20088;-66
2022/08/14 06:18:34;;;;;;;7.13;5.03;;;;;;;23.84;64.63;100577.16;6022298;28;20066;-65
2022/08/14 06:21:30;;;;;;;9.30;5.60;;;;;;;23.97;63.94;100582.34;6021878;28;20040;-66
2022/08/14 06:24:26;;;;;;;11.90;5.97;;;;;;;23.39;65.64;100571.50;6016537;28;20034;-65
2022/08/14 06:27:21;;;;;;;9.68;5.38;;;;;;;23.57;65.13;100565.97;6023102;28;20227;-65
2022/08/14 06:30:24;;;;;;;9.40;5.97;;;;;;;23.75;64.81;100564.22;6020184;28;20044;-67
2022/08/14 06:33:20;;;;;;;9.27;6.28;;;;;;;23.80;64.17;100559.75;6020240;28;20026;-65
2022/08/14 06:36:19;;;;;;;10.15;5.93;;;;;;;24.05;63.27;100559.50;6023779;28;20382;-66
2022/08/14 06:39:14;;;;;;;8.05;5.45;;;;;;;24.50;62.03;100555.06;6022662;28;20092;-66
2022/08/14 06:42:10;;;;;;;9.85;5.47;;;;;;;24.23;62.03;100540.41;6021632;28;20031;-65
2022/08/14 06:45:06;;;;;;;9.03;5.87;;;;;;;24.33;62.56;100548.75;6023900;28;20034;-66
2022/08/14 06:48:02;;;;;;;9.00;5.53;;;;;;;24.90;60.16;100544.19;6019341;28;20456;-65
2022/08/14 06:50:58;;;;;;;7.63;5.22;;;;;;;25.10;59.45;100539.13;6019169;28;20149;-64
2022/08/14 06:53:53;;;;;;;7.38;5.75;;;;;;;24.94;59.66;100536.38;6020569;28;20038;-64
2022/08/14 06:56:48;;;;;;;6.93;5.10;;;;;;;24.88;59.85;100540.91;6019342;28;20046;-64
2022/08/14 06:59:44;;;;;;;8.10;5.07;;;;;;;24.46;61.65;100537.59;6017938;28;20435;-66
2022/08/14 07:05:53;;;;;;;8.57;5.63;;;;;;;25.08;59.61;100535.00;6021545;28;20027;-66
2022/08/14 07:08:49;;;;;;;8.87;5.30;;;;;;;25.52;58.33;100538.75;6023192;28;20022;-65
2022/08/14 07:11:44;;;;;;;9.27;5.60;;;;;;;25.09;59.10;100539.34;6016881;28;20026;-64
2022/08/14 07:14:40;;;;;;;7.07;5.40;;;;;;;25.57;57.72;100533.41;6017530;28;20050;-65
2022/08/14 07:17:43;;;;;;;7.93;5.13;;;;;;;25.76;56.77;100535.59;6022982;28;20466;-66
2022/08/14 07:20:40;;;;;;;9.43;5.78;;;;;;;25.68;57.73;100535.19;6020068;28;20030;-65
2022/08/14 07:23:36;;;;;;;7.82;5.30;;;;;;;25.36;58.83;100524.06;6022453;28;20206;-65
2022/08/14 07:26:33;;;;;;;9.73;6.20;;;;;;;25.67;57.39;100530.81;6019904;28;20049;-64
2022/08/14 07:29:28;;;;;;;8.32;6.07;;;;;;;25.94;56.56;100542.63;6019937;28;20104;-65
2022/08/14 07:32:23;;;;;;;10.13;5.90;;;;;;;25.75;57.20;100544.81;6020744;28;20038;-65
2022/08/14 07:35:19;;;;;;;7.53;5.87;;;;;;;26.07;55.46;100533.28;6017482;28;20394;-66
2022/08/14 07:38:19;;;;;;;9.02;5.28;;;;;;;26.17;55.42;100550.59;6020940;28;20633;-64
2022/08/14 07:41:14;;;;;;;12.63;6.05;;;;;;;26.26;55.66;100554.50;6018458;28;20038;-64
2022/08/14 07:44:13;;;;;;;8.07;5.67;;;;;;;26.11;55.25;100539.88;6022364;28;20026;-64
2022/08/14 07:47:08;;;;;;;8.65;5.93;;;;;;;25.98;56.55;100546.50;6009320;28;20041;-64
2022/08/14 07:50:10;;;;;;;9.13;5.72;;;;;;;26.26;55.31;100534.66;6021262;28;20026;-66
2022/08/14 07:53:06;;;;;;;9.25;5.72;;;;;;;25.86;55.92;100543.88;6030582;28;20530;-63
2022/08/14 07:56:01;;;;;;;9.20;5.78;;;;;;;26.32;54.07;100548.06;6017769;28;20034;-65
2022/08/14 07:58:57;;;;;;;9.27;5.93;;;;;;;25.94;55.85;100548.06;6020942;28;20026;-64
2022/08/14 08:01:52;;;;;;;8.38;5.78;;;;;;;25.72;56.20;100555.34;6019780;28;20286;-65
2022/08/14 08:04:54;;;;;;;8.82;6.28;;;;;;;25.59;56.69;100545.66;6020313;28;20164;-67
2022/08/14 08:07:50;;;;;;;7.78;6.03;;;;;;;25.10;58.31;100549.97;6020446;28;20041;-67
2022/08/14 08:10:48;;;;;;;9.88;5.95;;;;;;;25.58;57.77;100563.03;6014108;28;20050;-67
2022/08/14 08:13:43;;;;;;;7.82;5.35;;;;;;;25.42;57.84;100552.94;6012425;28;20041;-66
2022/08/14 08:16:38;;;;;;;7.67;5.77;;;;;;;25.45;57.62;100557.91;6016725;28;20038;-65
2022/08/14 08:19:33;;;;;;;9.60;6.30;;;;;;;25.46;58.01;100540.53;6025856;28;20300;-64
2022/08/14 08:22:29;;;;;;;9.32;6.10;;;;;;;26.19;55.69;100547.63;6021052;28;20037;-66
2022/08/14 08:25:26;;;;;;;8.20;5.70;;;;;;;26.81;53.90;100545.38;6014388;28;20532;-65
2022/08/14 08:28:22;;;;;;;8.63;5.43;;;;;;;26.94;53.39;100553.13;6011551;28;20486;-65
2022/08/14 08:31:18;;;;;;;8.48;5.65;;;;;;;26.76;53.50;100551.56;6020746;28;20116;-64
2022/08/14 08:34:14;;;;;;;9.27;6.30;;;;;;;26.56;53.84;100548.63;6012059;28;20031;-64
2022/08/14 08:37:09;;;;;;;10.88;6.57;;;;;;;26.73;53.50;100535.75;6029444;28;20027;-67
2022/08/14 08:40:05;;;;;;;9.48;6.25;;;;;;;26.32;54.85;100536.34;6016859;28;20073;-64
2022/08/14 08:43:05;;;;;;;10.65;6.45;;;;;;;26.70;53.70;100536.25;6014281;28;20026;-64
2022/08/14 08:46:11;;;;;;;8.90;5.75;;;;;;;26.70;53.12;100538.97;6023570;28;20038;-64
2022/08/14 08:49:09;;;;;;;8.38;5.85;;;;;;;27.35;52.50;100529.81;6022466;28;20045;-64
2022/08/14 08:52:04;;;;;;;9.25;6.45;;;;;;;27.75;51.08;100521.94;6025444;28;20030;-64
2022/08/14 08:54:59;;;;;;;10.00;6.65;;;;;;;27.70;51.16;100516.47;6026051;28;20524;-64
2022/08/14 08:57:57;;;;;;;7.97;6.07;;;;;;;27.64;50.69;100521.06;6025649;28;20070;-64
2022/08/14 09:00:57;;;;;;;10.20;6.45;;;;;;;27.82;50.10;100513.53;6020517;28;20293;-64
2022/08/14 09:04:00;;;;;;;8.23;5.78;;;;;;;27.92;50.23;100514.41;6018349;28;20477;-65
2022/08/14 09:06:56;;;;;;;8.70;6.00;;;;;;;28.16;48.74;100510.19;6035650;28;20038;-65
2022/08/14 09:09:52;;;;;;;9.02;5.82;;;;;;;27.87;49.36;100499.94;6020356;28;20034;-65
2022/08/14 09:12:48;;;;;;;9.23;6.13;;;;;;;27.95;49.25;100505.69;6020388;28;20038;-64
2022/08/14 09:15:45;;;;;;;8.95;6.03;;;;;;;27.97;49.82;100506.25;6034141;28;20525;-66
2022/08/14 09:18:40;;;;;;;8.95;6.50;;;;;;;27.94;49.43;100490.41;6017812;28;20121;-64
2022/08/14 09:21:38;;;;;;;9.00;6.53;;;;;;;27.81;49.89;100490.91;6024441;28;20431;-64
2022/08/14 09:24:34;;;;;;;8.02;6.57;;;;;;;27.79;49.89;100482.16;6023305;28;20042;-65
2022/08/14 09:27:30;;;;;;;8.20;6.10;;;;;;;28.18;49.06;100469.81;6023668;28;20041;-64
2022/08/14 09:30:25;;;;;;;11.85;6.32;;;;;;;28.83;47.10;100471.09;6024366;28;20046;-65
2022/08/14 09:34:20;;;;;;;8.27;5.88;;;;;;;28.95;45.74;100474.38;6028589;28;20038;-63
2022/08/14 09:37:26;;;;;;;9.10;5.50;;;;;;;28.62;46.34;100474.88;5974870;28;20903;-65
2022/08/14 09:40:49;;;;;;;9.15;5.63;;;;;;;28.70;46.96;100479.81;6016899;28;20038;-65
2022/08/14 09:44:28;;;;;;;8.80;6.10;;;;;;;29.31;44.58;100467.81;6016005;28;20058;-65
2022/08/14 09:47:49;;;;;;;8.23;6.25;;;;;;;29.17;45.27;100461.25;6015367;28;20030;-67
2022/08/14 09:50:52;;;;;;;8.50;6.18;;;;;;;29.22;46.81;100450.34;6018033;28;20042;-66
2022/08/14 09:54:00;;;;;;;8.18;5.90;;;;;;;29.68;45.38;100461.19;6024906;28;20034;-66
2022/08/14 09:56:55;;;;;;;8.43;6.57;;;;;;;29.46;46.07;100456.84;6011750;28;20034;-65
2022/08/14 09:59:51;;;;;;;8.10;6.30;;;;;;;29.45;45.55;100441.56;6009469;28;20046;-64
2022/08/14 10:02:55;;;;;;;8.60;6.35;;;;;;;29.80;44.63;100442.59;6019841;28;20138;-66
2022/08/14 10:05:50;;;;;;;7.80;5.45;;;;;;;29.58;42.91;100440.16;6025696;28;20611;-65
2022/08/14 10:08:59;;;;;;;8.48;5.45;;;;;;;29.09;43.11;100431.75;6020158;28;20103;-66
2022/08/14 10:11:56;;;;;;;8.80;5.43;;;;;;;28.80;43.42;100450.63;6018880;28;20042;-66
2022/08/14 10:14:52;;;;;;;9.15;5.25;;;;;;;29.11;42.80;100434.22;6033871;28;20061;-65
2022/08/14 10:17:48;;;;;;;7.85;5.40;;;;;;;29.08;42.26;100419.19;6023988;28;20034;-65
2022/08/14 10:20:50;;;;;;;8.00;5.40;;;;;;;28.83;43.63;100432.88;6021863;28;20433;-67
2022/08/14 10:23:51;;;;;;;9.15;5.80;;;;;;;28.86;43.07;100426.88;6008172;28;20041;-65
2022/08/14 10:26:55;;;;;;;8.80;5.50;;;;;;;29.25;41.33;100425.22;6019641;28;20377;-64
2022/08/14 10:29:56;;;;;;;7.03;5.53;;;;;;;29.38;42.04;100424.63;6022938;28;20117;-66
2022/08/14 10:32:52;;;;;;;7.70;5.25;;;;;;;29.13;42.31;100438.31;6011052;28;20031;-66
2022/08/14 10:35:47;;;;;;;11.05;5.65;;;;;;;28.77;42.80;100433.94;6023891;28;20121;-65
2022/08/14 10:38:42;;;;;;;9.33;5.67;;;;;;;29.22;42.42;100422.19;6019262;28;20603;-66
2022/08/14 10:41:43;;;;;;;10.63;5.83;;;;;;;29.26;42.75;100420.56;6017717;28;20389;-66
2022/08/14 10:44:45;;;;;;;8.63;5.60;;;;;;;29.28;42.67;100410.16;6022255;28;20043;-66
2022/08/14 10:47:40;;;;;;;7.47;5.40;;;;;;;29.17;42.38;100412.06;6015654;28;20500;-66
2022/08/14 10:50:40;;;;;;;8.10;5.77;;;;;;;29.70;41.82;100420.72;6028625;28;20034;-66
2022/08/14 10:53:36;;;;;;;10.93;5.90;;;;;;;29.61;41.61;100409.53;6013882;28;20454;-65
2022/08/14 10:56:34;;;;;;;8.45;6.25;;;;;;;28.75;43.20;100419.75;6017356;28;20123;-66
2022/08/14 10:59:40;;;;;;;9.18;6.00;;;;;;;28.88;42.55;100400.09;6021242;28;20486;-66
2022/08/14 11:02:38;;;;;;;8.07;5.68;;;;;;;29.18;41.83;100400.06;6020593;28;20097;-66
2022/08/14 11:05:44;;;;;;;8.77;6.07;;;;;;;28.97;42.24;100384.81;6018751;28;20039;-66
2022/08/14 11:08:40;;;;;;;8.70;5.60;;;;;;;29.52;41.51;100375.66;6013589;28;20045;-65
2022/08/14 11:11:42;;;;;;;9.03;6.10;;;;;;;29.21;41.83;100385.03;6017541;28;20101;-66
2022/08/14 11:14:39;;;;;;;8.02;5.78;;;;;;;29.78;39.84;100379.13;6013831;28;20417;-65
2022/08/14 11:17:35;;;;;;;8.27;5.40;;;;;;;29.65;39.41;100385.19;6016114;28;20057;-66
2022/08/14 11:20:30;;;;;;;11.00;5.50;;;;;;;30.20;38.94;100376.72;6019775;28;20473;-66
2022/08/14 11:23:29;;;;;;;9.07;6.03;;;;;;;29.70;40.27;100372.31;6012870;28;20091;-66
2022/08/14 11:26:26;;;;;;;;;;;;;;;29.71;40.27;100364.91;6013971;28;20064;-66
2022/08/14 11:29:22;;;;;;;8.05;5.90;;;;;;;29.65;41.34;100363.34;6021231;28;20317;-66
2022/08/14 11:32:20;;;;;;;8.98;5.75;;;;;;;29.38;41.40;100350.84;6029735;28;20049;-66
2022/08/14 11:35:22;;;;;;;8.50;5.57;;;;;;;29.99;40.33;100353.31;6022182;28;20092;-66
2022/08/14 11:38:18;;;;;;;9.00;6.55;;;;;;;30.11;40.29;100356.53;6020916;28;20498;-65
2022/08/14 11:41:17;;;;;;;9.65;6.22;;;;;;;30.21;39.36;100342.78;6015620;28;20026;-66
2022/08/14 11:44:13;;;;;;;8.80;6.03;;;;;;;30.52;37.68;100336.00;6022970;28;20022;-66
2022/08/14 11:47:18;;;;;;;10.15;6.30;;;;;;;30.53;38.46;100347.75;6017184;28;20042;-66
2022/08/14 11:50:19;;;;;;;8.88;6.40;;;;;;;30.56;38.39;100336.25;6020080;28;20045;-66
2022/08/14 11:53:29;;;;;;;9.25;6.75;;;;;;;30.14;39.52;100334.06;6021357;28;20026;-66
2022/08/14 11:56:24;;;;;;;9.40;5.80;;;;;;;30.73;38.70;100335.81;6020747;28;20096;-66
2022/08/14 11:59:22;;;;;;;9.20;6.47;;;;;;;31.01;37.36;100310.38;6018587;28;20034;-65
2022/08/14 12:02:17;;;;;;;7.40;5.78;;;;;;;30.60;37.31;100312.69;6021581;28;20030;-66
2022/08/14 12:05:13;;;;;;;10.53;6.40;;;;;;;30.15;38.93;100316.56;6021600;28;20097;-66
2022/08/14 12:08:09;;;;;;;9.80;6.38;;;;;;;30.54;38.26;100320.13;6016077;28;20677;-64
2022/08/14 12:11:06;;;;;;;6.45;5.35;;;;;;;30.81;38.21;100305.06;6015478;28;20422;-65
2022/08/14 12:14:08;;;;;;;9.50;5.97;;;;;;;30.72;37.96;100309.53;6005868;28;20031;-65
2022/08/14 12:17:06;;;;;;;7.90;5.75;;;;;;;31.03;37.48;100313.63;6018568;28;20498;-65
2022/08/14 12:20:05;;;;;;;8.75;6.78;;;;;;;31.00;37.25;100306.00;6016296;28;20046;-65
2022/08/14 12:23:01;;;;;;;9.00;6.30;;;;;;;30.89;37.99;100302.53;6019543;28;20058;-66
2022/08/14 12:26:09;;;;;;;9.70;6.40;;;;;;;30.64;38.37;100305.50;6024024;28;20461;-65
2022/08/14 12:29:11;;;;;;;9.93;6.30;;;;;;;30.92;37.79;100303.91;6023781;28;20378;-65
2022/08/14 12:32:06;;;;;;;10.57;6.10;;;;;;;30.82;37.16;100284.81;6024874;28;20413;-65
2022/08/14 12:35:02;;;;;;;8.77;6.10;;;;;;;31.10;37.84;100283.94;6029173;28;20034;-65
2022/08/14 12:37:57;;;;;;;7.50;5.47;;;;;;;31.28;35.93;100287.88;6025866;28;20153;-65
2022/08/14 12:40:52;;;;;;;8.32;5.97;;;;;;;31.05;37.68;100284.84;6029220;28;20065;-65
2022/08/14 12:43:50;;;;;;;12.03;6.07;;;;;;;30.99;37.33;100266.00;6019795;28;20045;-65
2022/08/14 12:46:46;;;;;;;8.98;6.30;;;;;;;30.95;36.88;100251.25;6025371;28;20037;-66
2022/08/14 12:49:52;;;;;;;9.57;6.40;;;;;;;31.21;36.22;100252.56;6019170;28;20042;-65
2022/08/14 12:52:49;;;;;;;7.53;5.85;;;;;;;30.89;36.89;100253.22;6022967;28;20050;-66
2022/08/14 12:55:45;;;;;;;12.93;6.03;;;;;;;30.90;36.52;100254.03;6026655;28;20113;-65
2022/08/14 12:58:44;;;;;;;9.80;6.30;;;;;;;30.85;36.26;100245.88;6027682;28;20037;-65
2022/08/14 13:01:41;;;;;;;7.50;6.20;;;;;;;30.97;36.52;100240.81;6041637;28;20069;-65
2022/08/14 13:04:37;;;;;;;9.95;5.43;;;;;;;31.22;35.17;100252.31;6033093;28;20019;-66
2022/08/14 13:07:32;;;;;;;11.43;6.32;;;;;;;31.20;34.86;100242.75;6022068;28;20081;-66
2022/08/14 13:10:31;;;;;;;7.40;5.40;;;;;;;31.44;34.64;100242.69;6022971;28;20063;-66
2022/08/14 13:13:32;;;;;;;11.55;6.18;;;;;;;31.27;34.69;100232.22;6023921;28;20074;-66
2022/08/14 13:16:28;;;;;;;7.43;5.57;;;;;;;31.52;34.15;100212.72;6012334;28;20354;-66
2022/08/14 13:19:25;;;;;;;9.27;6.10;;;;;;;31.58;33.66;100208.75;6017810;28;20555;-66
2022/08/14 13:22:29;;;;;;;12.65;6.13;;;;;;;31.05;34.43;100212.78;6012578;28;20409;-65
2022/08/14 13:25:26;;;;;;;8.48;5.85;;;;;;;31.41;34.29;100210.38;6022761;28;20037;-66
2022/08/14 13:28:26;;;;;;;8.80;6.28;;;;;;;31.60;34.32;100213.97;6022683;28;20061;-66
2022/08/14 13:31:22;;;;;;;7.82;5.90;;;;;;;31.55;35.34;100201.16;6016244;28;20042;-65
2022/08/14 13:34:23;;;;;;;9.32;5.85;;;;;;;31.81;34.11;100202.38;6021912;28;20038;-66
2022/08/14 13:37:19;;;;;;;8.13;6.35;;;;;;;31.89;33.99;100202.81;6024115;28;20056;-65
2022/08/14 13:40:17;;;;;;;10.93;5.72;;;;;;;31.83;33.46;100187.56;6016001;28;20035;-65
2022/08/14 13:43:13;;;;;;;9.23;6.05;;;;;;;31.59;33.56;100176.69;6028622;28;20042;-66
2022/08/14 13:46:09;;;;;;;10.43;5.28;;;;;;;31.50;33.11;100187.50;6023603;28;20085;-65
2022/08/14 13:49:09;;;;;;;7.50;6.10;;;;;;;31.75;31.52;100167.09;6016543;28;20038;-64
2022/08/14 13:52:05;;;;;;;7.95;5.55;;;;;;;32.24;32.19;100158.31;6023732;28;20065;-66
2022/08/14 13:55:03;;;;;;;7.68;5.85;;;;;;;32.43;31.28;100159.06;6018588;28;20030;-65
2022/08/14 13:58:00;;;;;;;7.72;5.75;;;;;;;32.53;31.70;100145.19;6019150;28;20181;-65
2022/08/14 14:00:56;;;;;;;7.63;6.07;;;;;;;33.21;30.89;100139.59;6018652;28;20034;-66
2022/08/14 14:03:53;;;;;;;10.30;6.25;;;;;;;33.12;30.73;100118.66;6011944;28;20031;-66